Time;durP1;ratioP1;P1;durP2;ratioP2;P2;SDS_P1;SDS_P2;PMS_P1;PMS_P2;Temp;Humidity;BMP_temperature;BMP_pressure;BME280_temperature;BME280_humidity;BME280_pressure;Samples;Min_cycle;Max_cycle;Signal;HPM_P1;HPM_P2
2023/11/01 00:01:54;;;;;;;14.10;2.25;;;26.80;22.10;;;;;;5051457;28;20602;-64
2023/11/01 00:04:20;;;;;;;12.45;2.05;;;26.70;22.40;;;;;;5051330;28;20075;-61
2023/11/01 00:06:47;;;;;;;6.47;2.40;;;26.60;22.50;;;;;;5050944;28;20599;-64
2023/11/01 00:09:13;;;;;;;10.25;3.78;;;26.50;22.70;;;;;;5043317;28;20695;-63
2023/11/01 00:11:39;;;;;;;10.75;2.95;;;26.50;22.60;;;;;;5044570;28;20142;-63
2023/11/01 00:14:06;;;;;;;9.57;4.55;;;26.50;22.60;;;;;;5048935;28;20079;-65
2023/11/01 00:16:33;;;;;;;6.00;3.15;;;26.40;22.50;;;;;;5045528;28;20058;-64
2023/11/01 00:19:00;;;;;;;10.50;3.88;;;26.30;22.30;;;;;;5046672;28;20474;-63
2023/11/01 00:21:26;;;;;;;10.93;3.90;;;26.30;22.10;;;;;;5048618;28;20439;-63
2023/11/01 00:23:53;;;;;;;9.48;2.92;;;26.20;22.10;;;;;;5057800;28;20539;-61
2023/11/01 00:26:19;;;;;;;14.07;3.40;;;26.10;22.10;;;;;;5046288;28;20483;-65
2023/11/01 00:28:45;;;;;;;12.35;3.03;;;26.00;22.00;;;;;;5052251;28;20070;-67
2023/11/01 00:31:12;;;;;;;10.63;3.20;;;25.90;22.00;;;;;;5047387;28;20088;-65
2023/11/01 00:33:38;;;;;;;14.05;3.20;;;25.70;21.70;;;;;;5047895;28;20065;-65
2023/11/01 00:36:05;;;;;;;9.48;2.72;;;25.70;21.90;;;;;;5053783;28;20086;-63
2023/11/01 00:38:37;;;;;;;13.93;3.25;;;25.60;22.00;;;;;;5056220;28;20092;-61
2023/11/01 00:41:04;;;;;;;11.02;2.75;;;25.50;22.30;;;;;;5051816;28;20124;-64
2023/11/01 00:43:31;;;;;;;10.05;2.40;;;25.40;22.30;;;;;;5050671;28;20418;-63
2023/11/01 00:45:58;;;;;;;14.05;2.75;;;25.30;22.70;;;;;;5046911;28;20080;-63
2023/11/01 00:48:25;;;;;;;14.55;2.97;;;25.20;22.80;;;;;;5046959;28;20455;-64
2023/11/01 00:50:51;;;;;;;14.60;3.45;;;25.10;23.00;;;;;;5051965;28;20083;-64
2023/11/01 00:53:18;;;;;;;11.50;3.38;;;25.00;23.10;;;;;;5046216;28;20482;-61
2023/11/01 00:55:44;;;;;;;10.73;3.03;;;24.90;23.40;;;;;;5045513;28;20099;-62
2023/11/01 00:58:11;;;;;;;14.68;3.03;;;24.90;23.80;;;;;;5046871;28;21500;-62
2023/11/01 01:00:37;;;;;;;17.33;3.45;;;24.70;23.30;;;;;;5046200;28;20095;-62
2023/11/01 01:03:06;;;;;;;13.13;3.35;;;24.60;23.60;;;;;;5046626;28;20436;-65
2023/11/01 01:05:33;;;;;;;19.85;3.40;;;24.60;23.20;;;;;;5059827;28;20080;-63
2023/11/01 01:07:59;;;;;;;16.73;3.45;;;24.50;23.20;;;;;;5047096;28;20150;-64
2023/11/01 01:10:26;;;;;;;19.33;3.83;;;24.50;23.40;;;;;;5058680;28;20490;-63
2023/11/01 01:12:52;;;;;;;20.30;3.33;;;24.40;23.70;;;;;;5041715;28;20419;-65
2023/11/01 01:15:18;;;;;;;22.27;3.92;;;24.30;24.00;;;;;;5052754;28;20095;-63
2023/11/01 01:17:45;;;;;;;24.73;4.88;;;24.20;23.50;;;;;;5053690;28;20080;-64
2023/11/01 01:20:12;;;;;;;17.65;5.15;;;24.10;23.90;;;;;;5051435;28;20076;-63
2023/11/01 01:22:38;;;;;;;24.70;5.78;;;24.10;23.90;;;;;;5065760;28;20072;-64
2023/11/01 01:25:05;;;;;;;26.58;6.57;;;24.00;24.30;;;;;;5064360;28;20635;-63
2023/11/01 01:27:32;;;;;;;28.60;6.25;;;23.90;24.40;;;;;;5062424;28;20528;-61
2023/11/01 01:29:58;;;;;;;23.98;5.60;;;23.80;24.40;;;;;;5066176;28;20084;-64
2023/11/01 01:32:30;;;;;;;21.35;5.32;;;23.70;24.40;;;;;;5049438;28;20453;-64
2023/11/01 01:34:57;;;;;;;36.85;6.38;;;23.70;24.50;;;;;;5058834;28;20086;-64
2023/11/01 01:37:23;;;;;;;30.80;6.30;;;23.60;25.30;;;;;;5055566;28;20077;-63
2023/11/01 01:39:50;;;;;;;21.42;6.82;;;23.50;24.40;;;;;;5060270;28;20075;-65
2023/11/01 01:42:17;;;;;;;35.03;7.30;;;23.50;25.30;;;;;;5055485;28;20087;-63
2023/11/01 01:44:43;;;;;;;38.40;7.30;;;23.40;25.10;;;;;;5055272;28;20076;-64
2023/11/01 01:47:10;;;;;;;33.15;7.03;;;23.30;25.40;;;;;;5064099;28;20077;-61
2023/11/01 01:49:36;;;;;;;30.48;6.45;;;23.20;25.90;;;;;;5057630;28;20181;-62
2023/11/01 01:52:04;;;;;;;42.40;7.78;;;23.10;26.20;;;;;;5049993;28;20106;-65
2023/11/01 01:54:31;;;;;;;30.23;7.65;;;23.00;26.40;;;;;;5054255;28;20112;-62
2023/11/01 01:56:58;;;;;;;35.85;7.53;;;22.90;26.10;;;;;;5063348;28;20155;-63
2023/11/01 01:59:25;;;;;;;41.95;7.32;;;22.90;25.80;;;;;;5057531;28;20084;-64
2023/11/01 02:01:55;;;;;;;33.15;7.20;;;22.90;26.40;;;;;;5050097;28;22010;-66
2023/11/01 02:04:22;;;;;;;34.45;6.60;;;22.70;26.10;;;;;;5051104;28;20112;-65
2023/11/01 02:06:48;;;;;;;29.95;6.18;;;22.70;26.00;;;;;;5048994;28;20082;-64
2023/11/01 02:09:15;;;;;;;31.65;6.45;;;22.50;26.10;;;;;;5050716;28;20093;-62
2023/11/01 02:11:43;;;;;;;32.58;6.93;;;22.50;26.40;;;;;;5048771;28;20089;-64
2023/11/01 02:14:10;;;;;;;33.90;6.30;;;22.40;26.80;;;;;;5046292;28;20095;-63
2023/11/01 02:16:36;;;;;;;27.98;6.28;;;22.40;27.10;;;;;;5048857;28;20075;-65
2023/11/01 02:19:03;;;;;;;36.63;5.72;;;22.30;26.80;;;;;;5048013;28;20071;-62
2023/11/01 02:21:30;;;;;;;25.50;6.18;;;22.30;26.40;;;;;;5048154;28;20153;-65
2023/11/01 02:23:57;;;;;;;40.72;6.25;;;22.20;26.10;;;;;;5047442;28;20106;-62
2023/11/01 02:26:25;;;;;;;34.33;7.25;;;22.20;26.60;;;;;;5048559;28;20087;-64
2023/11/01 02:28:52;;;;;;;30.92;8.05;;;22.20;27.20;;;;;;5048832;28;20159;-65
2023/11/01 02:31:18;;;;;;;35.45;7.93;;;22.10;27.90;;;;;;5049051;28;20075;-64
2023/11/01 02:33:44;;;;;;;43.03;8.45;;;22.00;27.90;;;;;;5051567;28;20614;-71
2023/11/01 02:36:11;;;;;;;32.78;8.30;;;22.00;27.00;;;;;;5052467;28;20099;-60
2023/11/01 02:38:38;;;;;;;41.38;9.43;;;21.90;26.70;;;;;;5055960;28;20129;-66
2023/11/01 02:41:04;;;;;;;30.20;10.20;;;21.80;27.50;;;;;;5048868;28;20099;-65
2023/11/01 02:43:31;;;;;;;43.90;11.10;;;21.80;28.00;;;;;;5050323;28;20119;-66
2023/11/01 02:45:58;;;;;;;37.97;10.18;;;21.70;27.90;;;;;;5055365;28;20136;-65
2023/11/01 02:48:24;;;;;;;37.97;10.25;;;21.60;28.80;;;;;;5063641;28;20089;-63
2023/11/01 02:50:53;;;;;;;43.33;10.45;;;21.50;28.40;;;;;;5050579;28;20522;-63
2023/11/01 02:53:19;;;;;;;39.25;10.15;;;21.50;28.10;;;;;;5050115;28;20124;-63
2023/11/01 02:55:46;;;;;;;36.75;10.18;;;21.40;28.70;;;;;;5050413;28;20201;-66
2023/11/01 02:58:12;;;;;;;47.40;9.95;;;21.30;29.10;;;;;;5050953;28;20075;-63
2023/11/01 03:00:39;;;;;;;45.90;9.23;;;21.20;28.90;;;;;;5058790;28;20075;-61
2023/11/01 03:03:05;;;;;;;40.90;8.80;;;21.20;28.60;;;;;;5057438;28;20103;-65
2023/11/01 03:05:32;;;;;;;37.67;7.63;;;21.10;28.90;;;;;;5065162;28;20159;-63
2023/11/01 03:07:58;;;;;;;51.90;8.07;;;21.10;28.80;;;;;;5047604;28;20111;-65
2023/11/01 03:10:25;;;;;;;26.17;6.82;;;21.00;28.90;;;;;;5055697;28;20083;-63
2023/11/01 03:12:51;;;;;;;33.08;7.30;;;20.90;29.30;;;;;;5049909;28;20086;-61
2023/11/01 03:15:17;;;;;;;36.85;7.40;;;20.90;28.60;;;;;;5056463;28;20126;-63
2023/11/01 03:17:44;;;;;;;32.75;7.45;;;20.80;28.50;;;;;;5056990;28;20082;-66
2023/11/01 03:20:10;;;;;;;33.10;7.32;;;20.80;28.50;;;;;;5051341;28;20071;-64
2023/11/01 03:22:37;;;;;;;54.17;8.38;;;20.70;28.20;;;;;;5055182;28;20140;-65
2023/11/01 03:25:04;;;;;;;39.28;8.40;;;20.60;28.40;;;;;;5050862;28;20105;-63
2023/11/01 03:27:30;;;;;;;44.10;9.07;;;20.60;29.00;;;;;;5048516;28;20082;-62
2023/11/01 03:29:57;;;;;;;37.53;9.38;;;20.50;29.10;;;;;;5048543;28;20144;-65
2023/11/01 03:32:23;;;;;;;36.15;9.07;;;20.50;29.20;;;;;;5047344;28;20094;-63
2023/11/01 03:34:51;;;;;;;51.40;9.05;;;20.40;28.40;;;;;;5054715;28;20098;-67
2023/11/01 03:37:17;;;;;;;37.75;7.85;;;20.40;28.20;;;;;;5046857;28;20513;-64
2023/11/01 03:39:50;;;;;;;44.78;8.68;;;20.30;28.60;;;;;;5045905;28;20141;-65
2023/11/01 03:42:20;;;;;;;44.58;8.90;;;20.30;28.90;;;;;;5046648;28;20086;-64
2023/11/01 03:44:47;;;;;;;39.92;8.38;;;20.20;29.90;;;;;;5048288;28;21975;-65
2023/11/01 03:47:13;;;;;;;41.13;9.75;;;20.10;29.30;;;;;;5048659;28;20102;-64
2023/11/01 03:49:40;;;;;;;34.28;9.10;;;20.00;29.30;;;;;;5056686;28;20442;-64
2023/11/01 03:52:06;;;;;;;39.95;9.77;;;20.00;29.50;;;;;;5051603;28;20083;-65
2023/11/01 03:54:33;;;;;;;44.38;10.10;;;19.90;30.20;;;;;;5050236;28;20518;-64
2023/11/01 03:57:04;;;;;;;30.98;9.95;;;19.90;31.00;;;;;;5050172;28;20102;-66
2023/11/01 03:59:30;;;;;;;43.70;11.63;;;19.80;30.70;;;;;;5042216;23;20537;-64
2023/11/01 04:01:57;;;;;;;37.35;10.95;;;19.70;30.30;;;;;;5008400;28;20455;-64
2023/11/01 04:04:23;;;;;;;38.78;12.50;;;19.60;30.80;;;;;;5008152;28;20080;-64
2023/11/01 04:06:50;;;;;;;37.85;12.68;;;19.60;30.50;;;;;;5008733;28;20064;-62
2023/11/01 04:09:16;;;;;;;43.42;12.50;;;19.50;30.10;;;;;;5008568;28;20131;-64
2023/11/01 04:11:43;;;;;;;34.38;11.68;;;19.40;30.00;;;;;;5008285;28;20080;-64
2023/11/01 04:14:10;;;;;;;46.85;12.73;;;19.40;30.30;;;;;;5005629;28;20090;-64
2023/11/01 04:16:36;;;;;;;38.55;11.75;;;19.30;30.90;;;;;;5006260;28;20871;-64
2023/11/01 04:19:03;;;;;;;34.28;10.90;;;19.30;31.40;;;;;;5008083;28;21198;-64
2023/11/01 04:21:29;;;;;;;40.05;11.73;;;19.20;31.20;;;;;;5007723;28;20163;-65
2023/11/01 04:23:55;;;;;;;56.15;14.10;;;19.20;30.90;;;;;;5007467;28;20602;-65
2023/11/01 04:26:22;;;;;;;54.40;13.68;;;19.20;31.10;;;;;;5007389;28;20084;-63
2023/11/01 04:28:48;;;;;;;49.65;13.57;;;19.10;32.60;;;;;;5003306;28;20080;-62
2023/11/01 04:31:17;;;;;;;45.65;12.43;;;19.10;32.60;;;;;;5008410;28;20076;-64
2023/11/01 04:33:43;;;;;;;51.45;13.88;;;19.00;32.30;;;;;;5007952;28;20080;-64
2023/11/01 04:36:10;;;;;;;61.13;12.55;;;18.90;32.30;;;;;;5007237;28;20099;-66
2023/11/01 04:38:37;;;;;;;52.60;11.75;;;18.90;33.10;;;;;;5007628;28;20084;-62
2023/11/01 04:41:13;;;;;;;52.60;11.75;;;18.90;32.90;;;;;;5008119;28;20549;-64
2023/11/01 04:43:40;;;;;;;41.72;10.98;;;18.80;32.90;;;;;;5007418;28;20084;-64
2023/11/01 04:46:06;;;;;;;50.97;12.00;;;18.80;32.60;;;;;;4991285;28;20087;-64
2023/11/01 04:48:33;;;;;;;51.47;12.27;;;18.80;31.70;;;;;;4989730;28;20083;-65
2023/11/01 04:50:59;;;;;;;39.28;11.77;;;18.80;31.80;;;;;;4994491;28;20080;-66
2023/11/01 04:53:29;;;;;;;57.75;13.27;;;18.70;32.40;;;;;;4991841;28;20091;-62
2023/11/01 04:55:56;;;;;;;51.70;12.45;;;18.70;32.30;;;;;;4995579;28;20773;-63
2023/11/01 04:58:23;;;;;;;47.17;11.05;;;18.60;32.20;;;;;;4999846;28;20549;-63
2023/11/01 05:00:50;;;;;;;49.83;11.15;;;18.60;32.40;;;;;;5004087;28;20108;-66
2023/11/01 05:03:17;;;;;;;36.50;10.40;;;18.60;31.90;;;;;;4993107;28;20121;-65
2023/11/01 05:05:43;;;;;;;33.70;9.73;;;18.60;31.20;;;;;;4998939;28;20175;-66
2023/11/01 05:08:10;;;;;;;42.58;9.32;;;18.60;31.80;;;;;;5006247;28;20075;-65
2023/11/01 05:10:36;;;;;;;29.85;9.52;;;18.60;30.90;;;;;;4993402;28;20560;-62
2023/11/01 05:13:05;;;;;;;32.53;10.32;;;18.50;29.60;;;;;;4991772;28;20078;-64
2023/11/01 05:15:36;;;;;;;36.20;10.52;;;18.50;28.80;;;;;;4996005;28;20571;-63
2023/11/01 05:18:03;;;;;;;38.17;11.15;;;18.50;29.10;;;;;;5002392;28;20095;-65
2023/11/01 05:20:29;;;;;;;48.90;10.95;;;18.50;29.60;;;;;;4994454;28;20128;-65
2023/11/01 05:22:56;;;;;;;41.90;11.93;;;18.50;30.20;;;;;;4991355;28;20533;-63
2023/11/01 05:25:25;;;;;;;36.65;13.50;;;18.50;30.30;;;;;;4994263;28;20096;-64
2023/11/01 05:27:52;;;;;;;46.15;14.00;;;18.40;30.30;;;;;;4992428;28;20091;-62
2023/11/01 05:30:18;;;;;;;54.53;14.80;;;18.40;31.10;;;;;;5003192;28;20154;-65
2023/11/01 05:32:46;;;;;;;47.92;14.38;;;18.40;32.00;;;;;;4992419;28;20080;-64
2023/11/01 05:35:14;;;;;;;51.65;14.70;;;18.30;32.10;;;;;;4995632;28;20096;-61
2023/11/01 05:37:41;;;;;;;48.60;13.88;;;18.20;32.50;;;;;;5009156;28;20081;-62
2023/11/01 05:40:14;;;;;;;54.10;13.85;;;18.20;32.40;;;;;;5001323;28;20118;-62
2023/11/01 05:42:41;;;;;;;62.00;14.75;;;18.10;32.40;;;;;;4995114;28;20084;-63
2023/11/01 05:45:09;;;;;;;77.90;16.63;;;18.10;33.90;;;;;;5005299;28;20078;-66
2023/11/01 05:47:35;;;;;;;67.13;15.93;;;18.10;33.70;;;;;;5001705;28;20086;-63
2023/11/01 05:50:06;;;;;;;73.28;16.55;;;18.00;33.40;;;;;;4999216;28;20108;-63
2023/11/01 05:52:34;;;;;;;59.03;16.27;;;18.00;33.00;;;;;;4999771;28;20159;-62
2023/11/01 05:55:00;;;;;;;77.95;17.23;;;17.90;34.20;;;;;;5002275;28;20095;-61
2023/11/01 05:57:27;;;;;;;80.93;18.00;;;17.90;34.90;;;;;;5000241;28;20088;-64
2023/11/01 05:59:53;;;;;;;83.55;18.13;;;17.80;35.50;;;;;;5001834;28;20124;-63
2023/11/01 06:02:20;;;;;;;67.15;16.75;;;17.80;34.80;;;;;;5002299;28;20079;-64
2023/11/01 06:04:46;;;;;;;68.18;15.35;;;17.70;34.30;;;;;;4990510;28;20081;-61
2023/11/01 06:07:14;;;;;;;63.72;16.40;;;17.70;34.70;;;;;;4989873;28;20084;-65
2023/11/01 06:09:40;;;;;;;73.20;15.95;;;17.70;34.40;;;;;;5001318;28;20083;-66
2023/11/01 06:12:07;;;;;;;74.65;17.08;;;17.70;34.00;;;;;;4992160;28;20174;-63
2023/11/01 06:14:33;;;;;;;80.82;18.02;;;17.60;33.90;;;;;;5001053;28;20508;-64
2023/11/01 06:17:00;;;;;;;84.32;17.50;;;17.60;34.70;;;;;;5004381;28;20076;-61
2023/11/01 06:19:28;;;;;;;79.75;18.20;;;17.60;35.10;;;;;;4993890;28;20583;-63
2023/11/01 06:21:54;;;;;;;85.82;19.90;;;17.50;34.60;;;;;;4998281;28;20088;-62
2023/11/01 06:24:21;;;;;;;86.25;20.63;;;17.50;34.10;;;;;;4992973;28;20100;-63
2023/11/01 06:26:47;;;;;;;99.13;21.85;;;17.50;34.20;;;;;;4990125;28;20088;-64
2023/11/01 06:29:14;;;;;;;80.90;18.80;;;17.50;33.60;;;;;;5004469;28;20094;-61
2023/11/01 06:31:40;;;;;;;61.45;16.30;;;17.50;34.00;;;;;;5001455;28;20395;-63
2023/11/01 06:34:07;;;;;;;68.78;17.13;;;17.50;33.90;;;;;;5003306;28;20107;-63
2023/11/01 06:36:33;;;;;;;64.35;17.48;;;17.40;33.10;;;;;;4998710;28;20430;-64
2023/11/01 06:39:00;;;;;;;64.05;16.60;;;17.50;32.70;;;;;;5002044;28;20067;-61
2023/11/01 06:41:26;;;;;;;76.85;16.17;;;17.40;33.10;;;;;;4990428;28;20166;-63
2023/11/01 06:43:52;;;;;;;56.80;14.43;;;17.40;32.90;;;;;;5000955;28;20087;-62
2023/11/01 06:46:19;;;;;;;53.15;12.52;;;17.40;33.40;;;;;;4994811;28;20080;-64
2023/11/01 06:48:45;;;;;;;52.63;11.95;;;17.40;32.90;;;;;;4989846;28;20104;-63
2023/11/01 06:51:14;;;;;;;39.65;10.90;;;17.40;32.70;;;;;;4990099;28;20083;-62
2023/11/01 06:53:40;;;;;;;39.17;10.60;;;17.40;32.80;;;;;;4985155;28;20092;-63
2023/11/01 06:56:07;;;;;;;35.90;9.70;;;17.30;32.50;;;;;;4984908;28;20539;-62
2023/11/01 06:58:34;;;;;;;42.00;8.35;;;17.30;32.50;;;;;;4985971;28;20483;-62
2023/11/01 07:01:00;;;;;;;27.75;6.80;;;17.30;32.10;;;;;;4985363;28;20153;-62
2023/11/01 07:03:27;;;;;;;32.38;8.02;;;17.30;31.50;;;;;;4992410;28;20490;-61
2023/11/01 07:05:53;;;;;;;23.38;6.50;;;17.20;31.60;;;;;;4990884;28;20085;-63
2023/11/01 07:08:20;;;;;;;37.53;7.10;;;17.30;32.70;;;;;;4990679;28;20078;-62
2023/11/01 07:10:46;;;;;;;23.27;5.90;;;17.20;33.20;;;;;;4989297;28;20081;-63
2023/11/01 07:13:12;;;;;;;27.83;6.47;;;17.30;32.60;;;;;;4993481;28;20082;-65
2023/11/01 07:15:39;;;;;;;22.25;5.32;;;17.20;32.40;;;;;;4988542;28;20145;-63
2023/11/01 07:18:07;;;;;;;25.27;5.03;;;17.20;32.80;;;;;;4991096;28;20485;-64
2023/11/01 07:20:35;;;;;;;22.75;5.00;;;17.20;33.20;;;;;;4989296;28;20106;-64
2023/11/01 07:23:01;;;;;;;21.80;4.82;;;17.10;32.10;;;;;;4986944;28;20516;-63
2023/11/01 07:25:28;;;;;;;22.25;4.65;;;17.10;32.30;;;;;;4992475;28;20081;-64
2023/11/01 07:27:55;;;;;;;22.40;3.78;;;17.10;31.90;;;;;;4992366;28;20116;-65
2023/11/01 07:30:21;;;;;;;29.98;4.28;;;17.10;31.90;;;;;;4995455;28;20181;-63
2023/11/01 07:32:48;;;;;;;10.45;3.67;;;17.10;31.50;;;;;;4989415;28;20092;-61
2023/11/01 07:35:14;;;;;;;16.83;3.90;;;17.10;30.80;;;;;;4988724;28;20093;-64
2023/11/01 07:37:41;;;;;;;8.15;3.10;;;17.10;31.20;;;;;;4990934;28;20085;-63
2023/11/01 07:40:08;;;;;;;11.80;3.40;;;17.00;29.80;;;;;;4988625;28;20090;-64
2023/11/01 07:42:35;;;;;;;20.00;3.30;;;17.00;29.90;;;;;;4989765;28;20559;-63
2023/11/01 07:45:02;;;;;;;17.17;3.20;;;17.00;29.90;;;;;;4991918;28;20136;-63
2023/11/01 07:47:28;;;;;;;15.63;3.50;;;17.00;29.70;;;;;;4988527;28;20503;-63
2023/11/01 07:49:55;;;;;;;14.82;3.28;;;17.00;30.30;;;;;;4995180;28;20080;-64
2023/11/01 07:52:21;;;;;;;8.77;3.05;;;17.00;30.00;;;;;;4990411;28;20076;-61
2023/11/01 07:54:47;;;;;;;16.88;3.15;;;17.00;30.20;;;;;;4987349;28;20112;-62
2023/11/01 07:57:14;;;;;;;12.32;2.80;;;17.00;29.70;;;;;;4988792;28;20069;-62
2023/11/01 07:59:40;;;;;;;11.52;3.03;;;17.00;30.00;;;;;;4987050;28;20456;-64
2023/11/01 08:02:07;;;;;;;18.02;3.28;;;17.00;30.30;;;;;;4988673;28;20116;-63
2023/11/01 08:04:33;;;;;;;17.20;3.30;;;17.00;29.60;;;;;;4989049;28;20077;-64
2023/11/01 08:07:00;;;;;;;12.55;2.58;;;17.00;30.30;;;;;;4990003;28;20078;-61
2023/11/01 08:09:26;;;;;;;9.40;3.03;;;17.00;28.90;;;;;;4989562;28;20075;-63
2023/11/01 08:11:53;;;;;;;15.98;3.05;;;17.00;28.20;;;;;;4990403;28;20077;-64
2023/11/01 08:14:19;;;;;;;14.27;3.08;;;17.00;28.20;;;;;;4993471;28;20167;-64
2023/11/01 08:16:47;;;;;;;11.90;2.85;;;17.00;29.00;;;;;;4987945;28;20076;-65
2023/11/01 08:19:15;;;;;;;9.15;2.20;;;17.00;28.20;;;;;;4986596;28;20071;-63
2023/11/01 08:21:42;;;;;;;12.00;2.45;;;17.00;28.00;;;;;;4990698;28;20176;-62
2023/11/01 08:24:09;;;;;;;10.68;2.40;;;17.00;28.00;;;;;;4990318;28;20095;-63
2023/11/01 08:26:35;;;;;;;12.10;2.60;;;17.10;27.30;;;;;;4988101;28;20081;-65
2023/11/01 08:29:01;;;;;;;9.07;2.65;;;17.00;27.40;;;;;;4987812;28;20128;-62
2023/11/01 08:31:28;;;;;;;7.55;2.50;;;17.00;27.00;;;;;;4990511;28;20153;-66
2023/11/01 08:33:54;;;;;;;10.38;2.33;;;17.00;27.00;;;;;;4994393;28;20529;-64
2023/11/01 08:36:21;;;;;;;17.00;2.63;;;17.10;26.50;;;;;;4996535;28;20119;-64
2023/11/01 08:38:47;;;;;;;8.52;2.47;;;17.10;26.60;;;;;;4993388;28;20068;-65
2023/11/01 08:41:14;;;;;;;13.68;2.50;;;17.10;26.90;;;;;;4995000;28;20078;-62
2023/11/01 08:43:41;;;;;;;10.10;2.40;;;17.10;27.80;;;;;;4991888;28;20164;-61
2023/11/01 08:46:07;;;;;;;8.85;2.25;;;17.10;28.60;;;;;;4991680;28;20078;-62
2023/11/01 08:48:34;;;;;;;6.05;2.13;;;17.00;28.70;;;;;;4992667;28;20107;-65
2023/11/01 08:51:00;;;;;;;10.85;2.28;;;17.00;29.90;;;;;;4993107;28;20107;-64
2023/11/01 08:53:27;;;;;;;11.38;2.60;;;16.90;30.40;;;;;;4995309;28;20077;-63
2023/11/01 08:55:53;;;;;;;7.82;2.65;;;16.90;30.20;;;;;;4992150;28;20090;-63
2023/11/01 08:58:20;;;;;;;10.38;2.50;;;16.80;29.70;;;;;;4989250;28;20072;-63
2023/11/01 09:00:47;;;;;;;14.43;2.90;;;16.80;29.70;;;;;;4992663;28;20105;-66
2023/11/01 09:03:13;;;;;;;10.60;2.70;;;16.70;30.40;;;;;;4994093;28;20103;-65
2023/11/01 09:05:40;;;;;;;7.95;2.33;;;16.70;30.30;;;;;;4992230;28;20069;-65
2023/11/01 09:08:06;;;;;;;6.68;2.30;;;16.70;29.90;;;;;;4992982;28;20084;-63
2023/11/01 09:10:33;;;;;;;6.72;2.30;;;16.60;28.80;;;;;;4997354;28;20561;-63
2023/11/01 09:12:59;;;;;;;13.43;2.30;;;16.60;29.60;;;;;;4992888;28;20140;-65
2023/11/01 09:15:26;;;;;;;43.95;4.22;;;16.60;29.60;;;;;;4991042;28;20180;-68
2023/11/01 09:17:52;;;;;;;10.73;2.55;;;16.60;30.00;;;;;;4986631;28;20113;-65
2023/11/01 09:20:19;;;;;;;9.63;2.50;;;16.70;30.00;;;;;;4992860;28;20080;-65
2023/11/01 09:22:45;;;;;;;12.80;2.25;;;17.00;29.50;;;;;;4991979;28;20086;-63
2023/11/01 09:25:12;;;;;;;7.93;2.30;;;17.30;29.70;;;;;;4990113;28;20084;-64
2023/11/01 09:27:38;;;;;;;12.57;2.30;;;17.40;29.50;;;;;;4996197;28;20112;-64
2023/11/01 09:30:05;;;;;;;7.60;2.50;;;17.50;29.60;;;;;;4991249;28;20136;-65
2023/11/01 09:32:32;;;;;;;7.78;2.10;;;17.60;29.70;;;;;;4989163;28;20455;-66
2023/11/01 09:34:58;;;;;;;7.00;2.72;;;17.60;29.20;;;;;;4994927;28;20101;-64
2023/11/01 09:37:25;;;;;;;8.35;2.90;;;17.60;30.00;;;;;;4994949;28;20085;-65
2023/11/01 09:39:51;;;;;;;11.35;2.85;;;17.70;30.20;;;;;;4991641;28;20080;-64
2023/11/01 09:42:23;;;;;;;9.98;3.10;;;17.70;29.70;;;;;;4994624;28;20158;-64
2023/11/01 09:44:58;;;;;;;9.85;3.05;;;17.60;29.30;;;;;;4994702;28;20080;-65
2023/11/01 09:47:28;;;;;;;9.15;2.67;;;17.60;29.00;;;;;;4988102;28;20099;-63
2023/11/01 09:49:55;;;;;;;9.73;2.60;;;17.50;29.00;;;;;;4995382;28;20217;-65
2023/11/01 09:52:22;;;;;;;11.82;2.65;;;17.50;28.60;;;;;;4992668;28;20213;-64
2023/11/01 09:54:49;;;;;;;10.52;3.00;;;17.60;28.90;;;;;;4995192;28;20180;-65
2023/11/01 09:57:17;;;;;;;9.10;3.00;;;17.50;28.50;;;;;;4994919;28;20079;-65
2023/11/01 09:59:45;;;;;;;11.45;2.90;;;17.50;28.70;;;;;;4994555;28;20130;-64
2023/11/01 10:02:13;;;;;;;10.75;3.08;;;17.50;28.80;;;;;;4990799;28;20073;-64
2023/11/01 10:04:40;;;;;;;12.35;3.00;;;17.40;28.60;;;;;;4994366;28;20441;-65
2023/11/01 10:07:07;;;;;;;16.02;3.00;;;17.40;28.90;;;;;;4995419;28;20090;-66
2023/11/01 10:09:37;;;;;;;16.45;3.47;;;17.40;28.90;;;;;;4995009;28;20563;-65
2023/11/01 10:12:08;;;;;;;8.73;3.10;;;17.30;29.60;;;;;;4993152;28;20219;-63
2023/11/01 10:14:38;;;;;;;9.13;2.83;;;17.30;29.70;;;;;;4991611;28;20115;-63
2023/11/01 10:17:04;;;;;;;11.68;3.00;;;17.20;30.50;;;;;;4996946;28;20082;-65
2023/11/01 10:19:31;;;;;;;8.40;2.80;;;17.20;30.10;;;;;;4998592;28;20084;-63
2023/11/01 10:21:58;;;;;;;12.20;3.00;;;17.20;29.70;;;;;;4994095;28;20111;-64
2023/11/01 10:24:25;;;;;;;11.57;2.78;;;17.20;29.80;;;;;;5001863;28;20108;-64
2023/11/01 10:26:56;;;;;;;6.85;2.83;;;17.10;29.90;;;;;;4999651;28;20081;-64
2023/11/01 10:29:24;;;;;;;8.45;2.83;;;17.00;30.50;;;;;;4994516;28;20566;-64
2023/11/01 10:31:54;;;;;;;8.52;2.80;;;16.90;30.80;;;;;;4991034;28;20084;-65
2023/11/01 10:34:31;;;;;;;10.73;2.78;;;16.90;31.90;;;;;;4989568;28;20078;-64
2023/11/01 10:36:59;;;;;;;8.35;2.92;;;16.70;32.60;;;;;;4989305;28;20177;-64
2023/11/01 10:39:26;;;;;;;8.25;2.35;;;16.80;32.20;;;;;;4989016;28;20204;-63
2023/11/01 10:41:56;;;;;;;12.75;2.80;;;16.70;31.60;;;;;;4989732;28;20077;-64
2023/11/01 10:44:23;;;;;;;9.77;2.92;;;16.60;32.20;;;;;;4992081;28;20077;-64
2023/11/01 10:46:50;;;;;;;9.27;2.75;;;16.50;32.10;;;;;;4989923;28;20280;-63
2023/11/01 10:49:17;;;;;;;8.95;3.28;;;16.40;32.00;;;;;;4989891;28;20121;-63
2023/11/01 10:51:45;;;;;;;15.18;3.22;;;16.30;32.50;;;;;;4989515;28;20084;-66
2023/11/01 10:54:12;;;;;;;12.20;3.30;;;16.30;33.30;;;;;;4989403;28;20088;-65
2023/11/01 10:56:39;;;;;;;14.85;3.40;;;16.30;32.20;;;;;;4991544;28;20089;-65
2023/11/01 10:59:15;;;;;;;8.77;3.40;;;16.20;32.20;;;;;;4992145;28;20093;-65
2023/11/01 11:02:17;;;;;;;13.07;3.90;;;16.20;32.50;;;;;;4988596;28;20088;-64
2023/11/01 11:05:10;;;;;;;10.90;3.97;;;16.20;32.80;;;;;;4988492;28;20319;-66
2023/11/01 11:07:50;;;;;;;13.73;3.78;;;16.30;33.10;;;;;;4988443;28;20575;-65
2023/11/01 11:10:20;;;;;;;5.82;3.17;;;16.20;33.20;;;;;;4987781;28;20197;-65
2023/11/01 11:13:09;;;;;;;13.30;3.83;;;16.20;33.30;;;;;;4987569;28;20078;-64
2023/11/01 11:15:51;;;;;;;11.25;4.30;;;16.00;33.20;;;;;;4991571;28;20100;-64
2023/11/01 11:18:50;;;;;;;15.23;4.28;;;15.90;33.50;;;;;;4986633;28;20089;-65
2023/11/01 11:21:50;;;;;;;13.85;4.03;;;15.90;33.80;;;;;;4987213;28;20086;-65
2023/11/01 11:24:34;;;;;;;14.75;4.40;;;15.90;34.10;;;;;;4988018;28;20743;-65
2023/11/01 11:27:01;;;;;;;11.02;4.50;;;15.90;34.40;;;;;;4988494;28;20142;-66
2023/11/01 11:29:46;;;;;;;14.23;4.57;;;15.90;35.40;;;;;;4988788;28;20124;-66
2023/11/01 11:32:21;;;;;;;13.57;5.18;;;15.80;35.90;;;;;;4988334;28;20672;-66
2023/11/01 11:34:48;;;;;;;18.10;5.57;;;15.80;36.40;;;;;;4986210;28;20097;-66
2023/11/01 11:37:16;;;;;;;26.10;5.60;;;15.70;36.40;;;;;;4988330;28;20565;-65
2023/11/01 11:40:07;;;;;;;19.80;5.90;;;15.70;36.10;;;;;;4988073;28;20136;-63
2023/11/01 11:42:48;;;;;;;26.45;6.22;;;15.60;35.70;;;;;;4988341;28;20074;-65
2023/11/01 11:45:29;;;;;;;20.65;6.65;;;15.50;36.50;;;;;;4988736;28;20112;-65
2023/11/01 11:47:55;;;;;;;17.88;6.07;;;15.50;36.50;;;;;;4985857;28;20074;-64
2023/11/01 11:50:22;;;;;;;20.17;5.65;;;15.50;35.90;;;;;;4988773;28;20172;-63
2023/11/01 11:52:48;;;;;;;21.98;6.60;;;15.50;35.80;;;;;;4988142;28;20173;-66
2023/11/01 11:55:15;;;;;;;24.33;6.70;;;15.50;36.80;;;;;;4988483;28;20501;-65
2023/11/01 11:57:41;;;;;;;21.25;7.45;;;15.50;37.00;;;;;;4988382;28;20090;-65
2023/11/01 12:00:10;;;;;;;21.75;7.43;;;15.50;36.70;;;;;;4989533;28;20113;-64
2023/11/01 12:02:37;;;;;;;22.02;7.57;;;15.60;37.20;;;;;;4988551;28;20081;-64
2023/11/01 12:05:04;;;;;;;23.27;7.05;;;15.50;36.90;;;;;;4987055;28;20090;-65
2023/11/01 12:07:31;;;;;;;21.60;7.50;;;15.40;37.10;;;;;;4987737;28;20132;-64
2023/11/01 12:09:58;;;;;;;32.83;8.77;;;15.40;37.70;;;;;;4988153;28;20089;-66
2023/11/01 12:12:24;;;;;;;25.08;7.57;;;15.30;36.90;;;;;;4987894;28;20101;-67
2023/11/01 12:14:59;;;;;;;21.00;7.53;;;15.40;38.10;;;;;;4988117;28;20193;-63
2023/11/01 12:17:26;;;;;;;37.70;8.15;;;15.40;37.70;;;;;;4987538;28;20200;-64
2023/11/01 12:19:53;;;;;;;26.92;7.82;;;15.30;37.60;;;;;;4986368;28;20173;-64
2023/11/01 12:22:20;;;;;;;30.42;7.18;;;15.30;37.90;;;;;;4987759;28;20221;-63
2023/11/01 12:24:48;;;;;;;20.13;6.80;;;15.20;37.50;;;;;;4988254;28;20078;-66
2023/11/01 12:27:20;;;;;;;27.90;7.50;;;15.30;37.20;;;;;;4986764;28;20160;-64
2023/11/01 12:29:50;;;;;;;18.75;6.63;;;15.20;37.50;;;;;;4988029;28;20509;-63
2023/11/01 12:32:18;;;;;;;18.55;7.03;;;15.30;37.20;;;;;;4990312;28;20169;-66
2023/11/01 12:34:50;;;;;;;25.85;6.80;;;15.20;37.70;;;;;;4986024;28;20101;-65
2023/11/01 12:37:22;;;;;;;24.90;6.75;;;15.20;37.90;;;;;;4988893;28;20078;-64
2023/11/01 12:40:15;;;;;;;24.05;6.20;;;15.10;38.30;;;;;;4989061;28;20531;-64